Time;durP1;ratioP1;P1;durP2;ratioP2;P2;SDS_P1;SDS_P2;PMS_P1;PMS_P2;Temp;Humidity;BMP_temperature;BMP_pressure;BME280_temperature;BME280_humidity;BME280_pressure;Samples;Min_cycle;Max_cycle;Signal;HPM_P1;HPM_P2
2023/08/01 00:01:02;;;;;;;8.43;2.72;;;16.00;99.90;;;;;;5055670;28;20045;-72
2023/08/01 00:03:28;;;;;;;12.05;3.63;;;15.90;99.90;;;;;;5053173;28;20048;-73
2023/08/01 00:05:55;;;;;;;10.40;3.10;;;15.90;99.90;;;;;;5053617;28;20045;-72
2023/08/01 00:08:23;;;;;;;10.02;3.20;;;15.90;99.90;;;;;;5055068;28;20408;-72
2023/08/01 00:10:49;;;;;;;10.73;3.47;;;15.90;99.90;;;;;;5052946;28;20503;-72
2023/08/01 00:13:15;;;;;;;7.68;3.05;;;15.90;99.90;;;;;;5053792;28;20045;-72
2023/08/01 00:15:41;;;;;;;9.30;3.47;;;15.90;99.90;;;;;;5054657;28;20044;-72
2023/08/01 00:18:06;;;;;;;10.48;3.20;;;15.90;99.90;;;;;;5052904;28;20080;-72
2023/08/01 00:20:32;;;;;;;7.88;3.35;;;15.80;99.90;;;;;;5053155;28;20132;-72
2023/08/01 00:22:58;;;;;;;10.95;3.42;;;15.80;99.90;;;;;;5054075;28;20480;-72
2023/08/01 00:25:23;;;;;;;10.40;3.95;;;15.70;99.90;;;;;;5054452;28;20043;-72
2023/08/01 00:27:52;;;;;;;10.88;3.58;;;15.70;99.90;;;;;;5054660;28;20120;-72
2023/08/01 00:30:18;;;;;;;8.43;3.40;;;15.70;99.90;;;;;;5052565;28;20547;-72
2023/08/01 00:32:44;;;;;;;5.85;2.97;;;15.60;99.90;;;;;;5054275;28;20115;-72
2023/08/01 00:35:10;;;;;;;11.00;3.30;;;15.60;99.90;;;;;;5054414;28;20481;-72
2023/08/01 00:37:36;;;;;;;7.82;2.78;;;15.60;99.90;;;;;;5053170;28;20520;-72
2023/08/01 00:40:03;;;;;;;8.35;3.20;;;15.50;99.90;;;;;;5036587;28;20041;-72
2023/08/01 00:42:28;;;;;;;7.07;2.83;;;15.50;99.90;;;;;;5036376;28;20060;-72
2023/08/01 00:44:54;;;;;;;7.88;2.95;;;15.50;99.90;;;;;;5034169;28;20413;-72
2023/08/01 00:47:20;;;;;;;7.82;3.13;;;15.50;99.90;;;;;;5054067;28;20489;-72
2023/08/01 00:49:49;;;;;;;8.40;3.00;;;15.40;99.90;;;;;;5036250;28;20045;-72
2023/08/01 00:52:15;;;;;;;4.85;2.70;;;15.40;99.90;;;;;;5046646;28;20037;-72
2023/08/01 00:54:41;;;;;;;8.18;3.00;;;15.40;99.90;;;;;;5033982;28;20045;-71
2023/08/01 00:57:08;;;;;;;9.57;2.95;;;15.40;99.90;;;;;;5016483;28;20041;-72
2023/08/01 00:59:34;;;;;;;8.43;3.00;;;15.30;99.90;;;;;;5040431;28;20048;-72
2023/08/01 01:02:00;;;;;;;8.52;2.90;;;15.30;99.90;;;;;;5054319;28;20041;-71
2023/08/01 01:04:27;;;;;;;8.90;3.28;;;15.30;99.90;;;;;;5054149;28;20041;-72
2023/08/01 01:07:00;;;;;;;6.40;2.90;;;15.30;99.90;;;;;;5034937;28;20041;-72
2023/08/01 01:09:29;;;;;;;7.13;3.40;;;15.30;99.90;;;;;;5054208;28;20053;-72
2023/08/01 01:11:54;;;;;;;9.18;3.30;;;15.20;99.90;;;;;;5035654;28;20492;-72
2023/08/01 01:14:20;;;;;;;10.82;3.33;;;15.20;99.90;;;;;;5034718;28;20049;-73
2023/08/01 01:16:49;;;;;;;8.13;4.03;;;15.30;99.90;;;;;;5035248;28;20041;-72
2023/08/01 01:19:21;;;;;;;8.80;4.13;;;15.30;99.90;;;;;;5052588;28;20048;-72
2023/08/01 01:21:50;;;;;;;8.57;4.13;;;15.30;99.90;;;;;;5053032;28;20135;-71
2023/08/01 01:24:17;;;;;;;9.95;3.67;;;15.30;99.90;;;;;;5036090;28;20036;-72
2023/08/01 01:26:44;;;;;;;9.05;3.80;;;15.30;99.90;;;;;;5033980;28;20106;-72
2023/08/01 01:29:11;;;;;;;10.15;4.05;;;15.30;99.90;;;;;;5035491;28;20122;-72
2023/08/01 01:31:38;;;;;;;6.25;3.08;;;15.30;99.90;;;;;;5035153;28;20079;-72
2023/08/01 01:34:04;;;;;;;8.55;3.53;;;15.40;99.90;;;;;;5035306;28;20472;-72
2023/08/01 01:36:34;;;;;;;9.88;3.58;;;15.30;99.90;;;;;;5036516;28;20049;-72
2023/08/01 01:39:02;;;;;;;8.93;3.88;;;15.30;99.90;;;;;;5053702;28;20045;-72
2023/08/01 01:41:31;;;;;;;8.00;3.38;;;15.30;99.90;;;;;;5051388;28;20139;-72
2023/08/01 01:43:59;;;;;;;5.82;3.30;;;15.30;99.90;;;;;;5051915;28;20052;-72
2023/08/01 01:46:25;;;;;;;10.40;3.58;;;15.20;99.90;;;;;;5051796;28;20059;-72
2023/08/01 01:48:51;;;;;;;6.70;3.42;;;15.20;99.90;;;;;;5051943;28;20041;-72
2023/08/01 01:51:24;;;;;;;8.85;3.70;;;15.20;99.90;;;;;;5052049;28;20150;-72
2023/08/01 01:53:52;;;;;;;8.82;3.75;;;15.20;99.90;;;;;;5034746;28;20041;-73
2023/08/01 01:56:18;;;;;;;9.15;3.85;;;15.20;99.90;;;;;;5051195;28;20045;-73
2023/08/01 01:58:47;;;;;;;8.20;3.85;;;15.20;99.90;;;;;;5051996;28;20053;-72
2023/08/01 02:01:13;;;;;;;9.57;3.33;;;15.30;99.90;;;;;;5050924;28;20052;-72
2023/08/01 02:03:41;;;;;;;9.68;3.67;;;15.30;99.90;;;;;;5050853;28;20045;-72
2023/08/01 02:06:10;;;;;;;10.82;3.78;;;15.40;99.90;;;;;;5052310;28;20091;-72
2023/08/01 02:08:36;;;;;;;9.70;3.90;;;15.40;99.90;;;;;;5051354;28;20045;-71
2023/08/01 02:11:01;;;;;;;7.97;3.83;;;15.40;99.90;;;;;;5053054;28;20052;-71
2023/08/01 02:13:28;;;;;;;8.45;3.60;;;15.40;99.90;;;;;;5051614;28;20041;-71
2023/08/01 02:15:54;;;;;;;9.05;3.33;;;15.40;99.90;;;;;;5050168;28;20099;-71
2023/08/01 02:18:20;;;;;;;8.45;3.40;;;15.40;99.90;;;;;;5051223;28;20043;-71
2023/08/01 02:20:46;;;;;;;7.50;2.30;;;15.40;99.90;;;;;;5052617;28;20033;-71
2023/08/01 02:23:12;;;;;;;8.20;2.63;;;15.40;99.90;;;;;;5052010;28;20427;-71
2023/08/01 02:25:41;;;;;;;9.80;2.80;;;15.30;99.90;;;;;;5050902;28;20047;-71
2023/08/01 02:28:07;;;;;;;9.25;2.47;;;15.30;99.90;;;;;;5051183;28;20053;-71
2023/08/01 02:30:36;;;;;;;8.55;2.67;;;15.30;99.90;;;;;;5050110;28;20044;-71
2023/08/01 02:33:02;;;;;;;8.18;2.22;;;15.20;99.90;;;;;;5051845;28;20120;-71
2023/08/01 02:35:29;;;;;;;11.52;2.80;;;15.20;99.90;;;;;;5051490;28;20132;-72
2023/08/01 02:37:55;;;;;;;8.15;2.10;;;15.20;99.90;;;;;;5049932;28;20049;-71
2023/08/01 02:40:21;;;;;;;10.23;2.17;;;15.20;99.90;;;;;;5051880;28;20048;-71
2023/08/01 02:42:47;;;;;;;8.13;1.70;;;15.20;99.90;;;;;;5053070;28;20036;-71
2023/08/01 02:45:13;;;;;;;8.55;1.83;;;15.20;99.90;;;;;;5050861;28;20044;-72
2023/08/01 02:47:39;;;;;;;6.25;1.30;;;15.20;99.90;;;;;;5051261;28;20041;-72
2023/08/01 02:50:05;;;;;;;7.93;1.60;;;15.20;99.90;;;;;;5051590;28;20057;-72
2023/08/01 02:52:34;;;;;;;5.78;1.75;;;15.20;99.90;;;;;;5051492;28;20180;-71
2023/08/01 02:55:05;;;;;;;6.25;1.48;;;15.10;99.90;;;;;;5051107;28;20048;-71
2023/08/01 02:57:31;;;;;;;7.32;1.42;;;15.10;99.90;;;;;;5051252;28;20132;-71
2023/08/01 02:59:59;;;;;;;7.60;1.40;;;15.10;99.90;;;;;;5052176;28;20037;-71
2023/08/01 03:02:27;;;;;;;9.80;1.55;;;15.10;99.90;;;;;;5052013;28;20396;-71
2023/08/01 03:04:53;;;;;;;7.30;1.38;;;15.00;99.90;;;;;;5053332;28;20048;-71
2023/08/01 03:07:19;;;;;;;5.18;1.60;;;15.00;99.90;;;;;;5055223;28;20045;-72
2023/08/01 03:09:45;;;;;;;6.28;1.38;;;15.00;99.90;;;;;;5054714;28;20053;-71
2023/08/01 03:12:11;;;;;;;7.53;1.90;;;15.00;99.90;;;;;;5054304;28;20366;-71
2023/08/01 03:14:38;;;;;;;6.97;1.80;;;15.00;99.90;;;;;;5055700;28;20075;-71
2023/08/01 03:17:03;;;;;;;4.93;1.60;;;15.00;99.90;;;;;;5054197;28;20064;-71
2023/08/01 03:19:29;;;;;;;8.25;1.80;;;15.00;99.90;;;;;;5055094;28;20045;-71
2023/08/01 03:21:55;;;;;;;6.25;1.73;;;15.00;99.90;;;;;;5053995;28;20265;-71
2023/08/01 03:24:21;;;;;;;9.10;1.85;;;15.00;99.90;;;;;;5054962;28;20052;-71
2023/08/01 03:26:47;;;;;;;9.70;2.10;;;15.00;99.90;;;;;;5053758;28;20045;-71
2023/08/01 03:29:12;;;;;;;8.18;1.80;;;14.90;99.90;;;;;;5055864;28;20049;-71
2023/08/01 03:31:38;;;;;;;4.45;1.50;;;14.90;99.90;;;;;;5053844;28;20052;-71
2023/08/01 03:34:04;;;;;;;7.53;1.33;;;14.90;99.90;;;;;;5053653;28;20051;-71
2023/08/01 03:36:29;;;;;;;7.15;1.40;;;14.90;99.90;;;;;;5055759;28;20057;-71
2023/08/01 03:38:55;;;;;;;5.25;1.52;;;14.90;99.90;;;;;;5037237;28;20187;-71
2023/08/01 03:41:21;;;;;;;7.85;1.52;;;14.90;99.90;;;;;;5054719;28;20045;-71
2023/08/01 03:43:47;;;;;;;9.48;1.75;;;14.90;99.90;;;;;;5037626;28;20128;-71
2023/08/01 03:46:12;;;;;;;7.15;1.70;;;14.90;99.90;;;;;;5055729;28;20068;-71
2023/08/01 03:48:38;;;;;;;8.27;1.70;;;14.80;99.90;;;;;;5054336;28;20045;-71
2023/08/01 03:51:04;;;;;;;8.05;1.95;;;14.90;99.90;;;;;;5037030;28;20460;-71
2023/08/01 03:53:29;;;;;;;7.32;1.70;;;14.90;99.90;;;;;;5037001;28;20095;-71
2023/08/01 03:55:55;;;;;;;4.05;1.48;;;14.80;99.90;;;;;;5053737;28;20037;-71
2023/08/01 03:58:21;;;;;;;9.02;1.90;;;14.90;99.90;;;;;;5037292;28;20044;-71
2023/08/01 04:00:46;;;;;;;5.93;1.60;;;14.90;99.90;;;;;;5054935;28;20099;-71
2023/08/01 04:03:15;;;;;;;6.97;2.35;;;14.90;99.90;;;;;;5054334;28;20542;-72
2023/08/01 04:05:41;;;;;;;6.00;1.85;;;15.00;99.90;;;;;;5036515;28;20045;-72
2023/08/01 04:08:07;;;;;;;5.65;1.77;;;15.10;99.90;;;;;;5054272;28;20045;-72
2023/08/01 04:10:35;;;;;;;8.55;2.38;;;15.00;99.90;;;;;;5036636;28;20167;-72
2023/08/01 04:13:01;;;;;;;14.07;2.45;;;15.10;99.90;;;;;;5037314;28;20041;-72
2023/08/01 04:15:27;;;;;;;8.15;2.17;;;15.10;99.90;;;;;;5035622;28;20056;-72
2023/08/01 04:17:53;;;;;;;6.38;2.60;;;15.20;99.90;;;;;;5054531;28;20044;-72
2023/08/01 04:20:18;;;;;;;7.10;2.67;;;15.20;99.90;;;;;;5036669;28;20170;-72
2023/08/01 04:22:44;;;;;;;14.07;2.65;;;15.20;99.90;;;;;;5052963;28;20040;-71
2023/08/01 04:25:10;;;;;;;5.57;2.78;;;15.20;99.90;;;;;;5054724;28;20041;-72
2023/08/01 04:27:35;;;;;;;7.32;2.13;;;15.20;99.90;;;;;;5036755;28;20413;-71
2023/08/01 04:30:01;;;;;;;5.05;2.10;;;15.30;99.90;;;;;;5035603;28;20546;-71
2023/08/01 04:32:27;;;;;;;6.50;2.20;;;15.20;99.90;;;;;;5036591;28;20049;-72
2023/08/01 04:34:53;;;;;;;5.43;1.98;;;15.20;99.90;;;;;;5036617;28;20504;-71
2023/08/01 04:37:22;;;;;;;8.80;1.90;;;15.10;99.90;;;;;;5054010;28;20052;-72
2023/08/01 04:39:48;;;;;;;5.78;1.58;;;15.10;99.90;;;;;;5036589;28;20137;-72
2023/08/01 04:42:14;;;;;;;7.25;1.80;;;15.10;99.90;;;;;;5053780;28;20059;-72
2023/08/01 04:44:40;;;;;;;6.72;2.10;;;15.10;99.90;;;;;;5052643;28;20151;-71
2023/08/01 04:47:06;;;;;;;7.00;2.03;;;15.00;99.90;;;;;;5054108;28;20111;-72
2023/08/01 04:49:32;;;;;;;7.90;1.90;;;15.00;99.90;;;;;;5036444;28;20080;-71
2023/08/01 04:52:00;;;;;;;7.07;2.40;;;15.00;99.90;;;;;;5035655;28;20068;-71
2023/08/01 04:54:26;;;;;;;8.20;2.15;;;15.10;99.90;;;;;;5054083;28;20381;-71
2023/08/01 04:56:52;;;;;;;5.88;1.75;;;15.20;99.90;;;;;;5035942;28;20045;-71
2023/08/01 04:59:18;;;;;;;9.95;1.95;;;15.20;99.90;;;;;;5035362;28;20041;-72
2023/08/01 05:01:43;;;;;;;4.75;1.40;;;15.30;99.90;;;;;;5035515;28;20057;-72
2023/08/01 05:04:09;;;;;;;8.48;1.65;;;15.30;99.90;;;;;;5035681;28;20451;-71
2023/08/01 05:06:35;;;;;;;3.72;1.23;;;15.30;99.90;;;;;;5053110;28;20451;-71
2023/08/01 05:09:00;;;;;;;5.18;1.30;;;15.30;99.90;;;;;;5053533;28;20048;-72
2023/08/01 05:11:26;;;;;;;7.15;1.50;;;15.30;99.90;;;;;;5053249;28;20450;-72
2023/08/01 05:13:52;;;;;;;3.35;0.90;;;15.20;99.90;;;;;;5035509;28;20052;-72
2023/08/01 05:16:18;;;;;;;4.55;1.30;;;15.20;99.90;;;;;;5035798;28;20036;-71
2023/08/01 05:18:46;;;;;;;6.75;1.23;;;15.20;99.90;;;;;;5034476;28;20143;-70
2023/08/01 05:21:12;;;;;;;12.73;1.30;;;15.10;99.90;;;;;;5036219;28;20045;-72
2023/08/01 05:23:38;;;;;;;11.40;1.40;;;15.10;99.90;;;;;;5053300;28;20099;-72
2023/08/01 05:26:03;;;;;;;9.55;1.30;;;15.00;99.90;;;;;;5034813;28;20392;-71
2023/08/01 05:28:38;;;;;;;5.78;1.30;;;15.00;99.90;;;;;;5052250;28;20041;-71
2023/08/01 05:31:04;;;;;;;7.38;1.60;;;15.10;99.90;;;;;;5053525;28;20048;-71
2023/08/01 05:33:33;;;;;;;8.77;1.40;;;15.00;99.90;;;;;;5035177;28;20045;-72
2023/08/01 05:36:01;;;;;;;5.00;1.60;;;15.10;99.90;;;;;;5035535;28;20057;-72
2023/08/01 05:38:27;;;;;;;10.73;1.70;;;15.10;99.90;;;;;;5033591;28;20048;-71
2023/08/01 05:40:52;;;;;;;9.05;1.60;;;15.10;99.90;;;;;;5032331;28;20037;-71
2023/08/01 05:43:18;;;;;;;7.70;1.40;;;15.10;99.90;;;;;;5015562;28;20049;-70
2023/08/01 05:45:44;;;;;;;8.38;1.83;;;15.10;99.90;;;;;;5032936;28;20064;-71
2023/08/01 05:48:10;;;;;;;5.63;1.63;;;15.10;99.90;;;;;;5015001;28;20048;-71
2023/08/01 05:50:36;;;;;;;7.78;1.50;;;15.10;99.90;;;;;;5015132;28;20065;-71
2023/08/01 05:53:01;;;;;;;8.02;1.58;;;15.20;99.90;;;;;;5033420;28;20045;-71
2023/08/01 05:55:30;;;;;;;7.50;1.40;;;15.20;99.90;;;;;;5032287;28;20080;-71
2023/08/01 05:57:56;;;;;;;6.25;1.27;;;15.70;99.90;;;;;;5014903;28;20052;-71
2023/08/01 06:00:22;;;;;;;5.60;1.33;;;15.40;99.90;;;;;;5015317;28;20042;-71
2023/08/01 06:02:48;;;;;;;7.15;1.83;;;15.60;99.90;;;;;;5031957;28;20473;-71
2023/08/01 06:05:16;;;;;;;5.50;1.10;;;15.60;99.90;;;;;;5032657;28;20041;-71
2023/08/01 06:07:42;;;;;;;5.28;1.23;;;15.60;99.90;;;;;;5032103;28;20052;-71
2023/08/01 06:10:08;;;;;;;10.68;1.42;;;15.60;99.90;;;;;;5013872;28;20107;-71
2023/08/01 06:12:35;;;;;;;6.93;1.30;;;15.60;99.90;;;;;;5014057;28;20115;-72
2023/08/01 06:15:01;;;;;;;2.65;0.95;;;15.50;99.90;;;;;;5032697;28;20050;-71
2023/08/01 06:17:26;;;;;;;6.03;1.30;;;15.40;99.90;;;;;;5015207;28;20056;-72
2023/08/01 06:19:54;;;;;;;8.95;1.40;;;15.50;99.90;;;;;;5014872;28;20052;-72
2023/08/01 06:22:20;;;;;;;6.38;1.33;;;15.40;99.90;;;;;;5014727;28;20085;-71
2023/08/01 06:24:46;;;;;;;10.65;1.58;;;15.50;99.90;;;;;;5014506;28;20084;-72
2023/08/01 06:27:12;;;;;;;7.50;1.25;;;15.50;99.90;;;;;;5032301;28;20538;-71
2023/08/01 06:29:38;;;;;;;8.05;1.73;;;15.50;99.90;;;;;;5013885;28;20401;-72
2023/08/01 06:32:07;;;;;;;6.45;1.75;;;15.50;99.90;;;;;;5015191;28;20045;-72
2023/08/01 06:34:33;;;;;;;6.63;1.60;;;15.40;99.90;;;;;;5014752;28;20048;-72
2023/08/01 06:36:59;;;;;;;7.97;1.80;;;15.40;99.90;;;;;;5013969;28;20425;-72
2023/08/01 06:39:25;;;;;;;6.88;1.83;;;15.30;99.90;;;;;;5013994;28;20048;-72
2023/08/01 06:41:50;;;;;;;6.25;1.45;;;15.40;99.90;;;;;;5014437;28;20079;-72
2023/08/01 06:44:16;;;;;;;5.45;1.60;;;15.40;99.90;;;;;;5013882;28;20037;-72
2023/08/01 06:46:42;;;;;;;5.88;1.60;;;15.40;99.90;;;;;;5014225;28;20041;-72
2023/08/01 06:49:08;;;;;;;6.95;1.95;;;15.40;99.90;;;;;;5015924;28;20041;-72
2023/08/01 06:51:34;;;;;;;6.68;1.83;;;15.50;99.90;;;;;;5037220;28;20041;-73
2023/08/01 06:54:00;;;;;;;5.93;1.70;;;15.60;99.90;;;;;;5032479;28;20551;-72
2023/08/01 06:56:26;;;;;;;7.10;1.90;;;15.70;99.90;;;;;;5032105;28;20042;-70
2023/08/01 06:58:58;;;;;;;6.63;2.00;;;15.80;99.90;;;;;;5031391;28;20052;-70
2023/08/01 07:01:24;;;;;;;7.20;1.88;;;16.20;99.90;;;;;;5014515;28;20042;-70
2023/08/01 07:03:51;;;;;;;10.07;1.73;;;16.00;99.90;;;;;;5031191;28;20056;-71
2023/08/01 07:06:17;;;;;;;7.18;1.70;;;16.20;99.90;;;;;;5032113;28;20033;-70
2023/08/01 07:08:43;;;;;;;12.70;2.08;;;16.30;99.90;;;;;;5014280;28;20049;-70
2023/08/01 07:11:09;;;;;;;9.82;1.85;;;16.40;99.90;;;;;;5013946;28;20489;-72
2023/08/01 07:13:35;;;;;;;8.63;1.77;;;16.50;99.90;;;;;;5014256;28;20532;-73
2023/08/01 07:16:00;;;;;;;13.15;2.10;;;16.70;99.90;;;;;;5031353;28;20053;-73
2023/08/01 07:18:26;;;;;;;10.38;2.25;;;16.80;99.90;;;;;;5013800;28;20045;-73
2023/08/01 07:21:04;;;;;;;5.30;1.70;;;16.60;99.90;;;;;;5013823;28;20050;-73
2023/08/01 07:23:35;;;;;;;8.20;2.03;;;16.60;99.90;;;;;;5031873;28;20049;-74
2023/08/01 07:26:01;;;;;;;8.35;2.20;;;16.50;99.90;;;;;;5031355;28;20485;-73
2023/08/01 07:28:26;;;;;;;6.60;1.45;;;16.30;99.90;;;;;;5014184;28;20095;-73
2023/08/01 07:31:05;;;;;;;4.50;1.80;;;16.20;99.90;;;;;;5031857;28;20128;-73
2023/08/01 07:33:32;;;;;;;;;;;16.10;99.90;;;;;;5031535;28;20481;-72
2023/08/01 07:35:57;;;;;;;8.65;2.03;;;16.70;99.90;;;;;;5032352;28;20000;-73
2023/08/01 07:38:26;;;;;;;8.45;1.83;;;15.90;99.90;;;;;;5050235;28;20152;-73
2023/08/01 07:40:53;;;;;;;11.63;2.10;;;15.70;99.90;;;;;;5049650;28;20566;-72
2023/08/01 07:43:19;;;;;;;10.40;2.03;;;15.70;99.90;;;;;;5051757;28;20057;-73
2023/08/01 07:45:45;;;;;;;12.00;2.03;;;15.60;99.90;;;;;;5050040;28;20106;-72
2023/08/01 07:48:11;;;;;;;6.10;1.85;;;15.60;99.90;;;;;;5049631;28;20048;-72
2023/08/01 07:50:37;;;;;;;9.18;2.10;;;15.70;99.90;;;;;;5048463;28;20573;-72
2023/08/01 07:53:03;;;;;;;9.70;1.75;;;15.70;99.90;;;;;;5047709;28;20083;-73
2023/08/01 07:55:34;;;;;;;10.00;2.08;;;15.70;99.90;;;;;;5051097;28;20041;-72
2023/08/01 07:58:00;;;;;;;10.07;2.45;;;15.70;99.90;;;;;;5051230;28;20441;-72
2023/08/01 08:00:26;;;;;;;7.47;2.33;;;15.80;99.90;;;;;;5034711;28;20056;-72
2023/08/01 08:02:53;;;;;;;4.82;1.90;;;15.80;99.90;;;;;;5040670;28;20053;-73
2023/08/01 08:05:19;;;;;;;7.50;1.92;;;16.00;99.90;;;;;;5035396;28;20091;-71
2023/08/01 08:07:45;;;;;;;7.88;2.30;;;16.10;99.90;;;;;;5037107;28;20045;-72
2023/08/01 08:10:11;;;;;;;8.43;2.03;;;16.10;99.90;;;;;;5033883;28;20076;-72
2023/08/01 08:12:36;;;;;;;4.35;1.77;;;16.20;99.90;;;;;;5033470;28;20049;-79
2023/08/01 08:15:03;;;;;;;6.70;1.60;;;16.10;99.90;;;;;;5047969;28;21411;-75
2023/08/01 08:17:28;;;;;;;6.80;1.85;;;16.10;99.90;;;;;;5053152;28;20049;-72
2023/08/01 08:19:54;;;;;;;9.18;3.00;;;16.10;99.90;;;;;;5036245;28;20041;-71
2023/08/01 08:22:20;;;;;;;6.63;1.58;;;16.10;99.90;;;;;;5034286;28;20518;-72
2023/08/01 08:24:55;;;;;;;9.45;1.95;;;16.30;99.90;;;;;;5033691;28;20200;-71
2023/08/01 08:27:21;;;;;;;6.70;1.90;;;16.50;99.90;;;;;;5033605;28;20037;-72
2023/08/01 08:29:46;;;;;;;7.63;2.40;;;17.10;99.90;;;;;;5032448;28;20076;-72
2023/08/01 08:32:12;;;;;;;11.07;1.88;;;17.60;99.90;;;;;;5037828;28;20091;-74
2023/08/01 08:34:39;;;;;;;7.97;2.05;;;18.00;99.90;;;;;;5053067;28;20045;-73
2023/08/01 08:37:05;;;;;;;10.00;1.80;;;18.30;99.90;;;;;;5053942;28;20124;-72
2023/08/01 08:39:31;;;;;;;9.13;2.08;;;18.90;99.90;;;;;;5054324;28;20037;-74
2023/08/01 08:41:57;;;;;;;8.15;1.80;;;19.30;99.90;;;;;;5047255;28;20412;-73
2023/08/01 08:44:29;;;;;;;7.05;1.83;;;19.70;99.90;;;;;;5035800;28;20048;-73
2023/08/01 08:47:06;;;;;;;5.53;1.30;;;20.20;99.90;;;;;;5054361;28;20052;-73
2023/08/01 08:49:32;;;;;;;8.63;1.30;;;21.00;99.90;;;;;;5033469;28;20048;-72
2023/08/01 08:51:58;;;;;;;5.40;1.42;;;21.40;99.90;;;;;;5017109;28;20060;-73
2023/08/01 08:54:25;;;;;;;6.15;1.50;;;21.60;99.90;;;;;;5052440;28;20515;-72
2023/08/01 08:56:52;;;;;;;5.38;1.30;;;21.60;99.90;;;;;;5035323;28;20621;-73
2023/08/01 08:59:21;;;;;;;5.90;1.30;;;21.50;99.90;;;;;;5054345;28;20045;-72
2023/08/01 09:01:47;;;;;;;5.40;1.50;;;21.40;99.90;;;;;;5035409;28;20053;-73
2023/08/01 09:04:12;;;;;;;6.43;1.40;;;21.10;99.90;;;;;;5052905;28;20040;-73
2023/08/01 09:06:51;;;;;;;4.32;1.45;;;21.00;99.90;;;;;;5053828;28;20052;-73
2023/08/01 09:09:18;;;;;;;6.65;1.60;;;20.70;99.90;;;;;;5036070;28;20048;-72
2023/08/01 09:11:49;;;;;;;5.55;1.70;;;20.30;99.90;;;;;;5052321;28;20056;-72
2023/08/01 09:14:15;;;;;;;9.45;1.85;;;20.30;99.90;;;;;;5053433;28;20049;-73
2023/08/01 09:16:42;;;;;;;7.45;1.95;;;20.40;99.90;;;;;;5034684;28;20045;-72
2023/08/01 09:19:09;;;;;;;6.07;2.08;;;20.30;99.90;;;;;;5035201;28;20396;-73
2023/08/01 09:21:39;;;;;;;7.45;1.70;;;20.30;99.90;;;;;;5035756;28;20060;-73
2023/08/01 09:24:18;;;;;;;8.95;1.75;;;20.20;99.90;;;;;;5035610;28;20135;-72
2023/08/01 09:26:45;;;;;;;7.72;1.85;;;20.00;99.90;;;;;;5034663;28;20055;-73
2023/08/01 09:29:11;;;;;;;8.02;1.65;;;20.00;99.90;;;;;;5053673;28;20049;-75
2023/08/01 09:31:41;;;;;;;5.30;1.50;;;19.90;99.90;;;;;;5051482;28;20564;-75
2023/08/01 09:34:27;;;;;;;5.07;1.40;;;20.00;99.90;;;;;;5035494;28;20408;-75
2023/08/01 09:37:00;;;;;;;5.85;1.40;;;20.00;99.90;;;;;;5027612;28;20132;-75
2023/08/01 09:39:26;;;;;;;5.47;1.45;;;20.20;99.90;;;;;;5015237;28;20053;-76
2023/08/01 09:41:59;;;;;;;5.95;1.40;;;20.40;99.90;;;;;;5033233;28;20448;-76
2023/08/01 09:44:27;;;;;;;8.25;1.33;;;20.70;99.90;;;;;;5016120;28;20041;-74
2023/08/01 09:46:57;;;;;;;5.82;1.60;;;20.80;99.90;;;;;;5014011;28;20485;-75
2023/08/01 09:49:23;;;;;;;4.05;1.60;;;20.80;99.90;;;;;;5033446;28;20037;-77
2023/08/01 09:51:53;;;;;;;5.13;1.40;;;21.00;99.90;;;;;;5033129;28;20076;-75
2023/08/01 09:54:21;;;;;;;6.65;1.58;;;21.40;99.90;;;;;;5014878;28;20049;-75
2023/08/01 09:56:50;;;;;;;8.40;1.80;;;21.30;99.90;;;;;;5033080;28;20053;-75
2023/08/01 09:59:24;;;;;;;4.78;1.38;;;21.10;99.90;;;;;;5032927;28;20045;-75
2023/08/01 10:01:53;;;;;;;4.05;1.15;;;21.50;99.90;;;;;;5031068;28;20556;-75
2023/08/01 10:04:23;;;;;;;4.90;1.70;;;21.70;99.90;;;;;;5015207;28;20045;-77
2023/08/01 10:06:59;;;;;;;5.13;1.65;;;22.10;99.90;;;;;;5014404;28;20087;-74
2023/08/01 10:09:25;;;;;;;;;;;22.20;99.90;;;;;;5015705;28;20053;-75
2023/08/01 10:11:51;;;;;;;7.13;1.50;;;22.40;99.90;;;;;;5014819;28;20004;-75
2023/08/01 10:14:19;;;;;;;7.00;1.35;;;22.20;99.90;;;;;;5031048;28;20040;-77
2023/08/01 10:16:46;;;;;;;5.63;1.25;;;22.00;99.90;;;;;;5032484;28;20045;-74
2023/08/01 10:19:17;;;;;;;5.65;1.20;;;22.00;99.90;;;;;;5012823;28;20095;-74
2023/08/01 10:21:47;;;;;;;6.18;1.27;;;21.80;99.90;;;;;;4996185;28;20129;-75
2023/08/01 10:24:17;;;;;;;6.13;1.23;;;21.70;99.90;;;;;;5000384;28;20571;-74
2023/08/01 10:26:46;;;;;;;7.18;1.17;;;21.90;99.90;;;;;;5001471;28;20071;-74
2023/08/01 10:29:12;;;;;;;7.13;1.45;;;22.20;99.90;;;;;;5009071;28;20124;-75
2023/08/01 10:31:38;;;;;;;5.22;1.20;;;22.20;99.90;;;;;;5009739;28;20448;-75
2023/08/01 10:34:12;;;;;;;5.45;1.35;;;22.00;99.90;;;;;;5030947;28;20052;-75
2023/08/01 10:36:38;;;;;;;6.30;1.70;;;21.80;99.90;;;;;;5006042;28;20132;-75
2023/08/01 10:39:05;;;;;;;5.50;1.30;;;21.90;99.90;;;;;;5046864;28;20099;-75
2023/08/01 10:41:35;;;;;;;6.72;1.48;;;22.20;99.90;;;;;;5032861;28;20041;-75
2023/08/01 10:44:12;;;;;;;5.85;1.38;;;22.60;99.90;;;;;;5050694;28;20099;-74
2023/08/01 10:47:03;;;;;;;4.53;1.15;;;22.70;99.90;;;;;;5052054;28;20076;-73
2023/08/01 10:49:43;;;;;;;7.05;1.35;;;22.30;99.90;;;;;;5051606;28;20128;-74
2023/08/01 10:52:28;;;;;;;6.00;1.30;;;22.10;99.90;;;;;;5050953;28;20416;-75
2023/08/01 10:55:05;;;;;;;6.05;1.65;;;21.80;99.90;;;;;;5034124;28;20053;-74
2023/08/01 10:57:34;;;;;;;8.23;1.38;;;21.60;99.90;;;;;;5051100;28;20079;-74
2023/08/01 11:00:00;;;;;;;5.43;1.30;;;21.60;99.90;;;;;;5052225;28;20174;-75
2023/08/01 11:02:28;;;;;;;5.75;1.50;;;21.60;99.90;;;;;;5034059;28;20084;-76
2023/08/01 11:05:07;;;;;;;4.75;1.45;;;21.40;99.90;;;;;;5033108;28;20490;-70
2023/08/01 11:07:34;;;;;;;5.07;1.70;;;21.70;99.90;;;;;;5051679;28;20048;-73
2023/08/01 11:10:13;;;;;;;5.03;1.65;;;22.20;99.90;;;;;;5033257;28;20493;-73
2023/08/01 11:12:41;;;;;;;6.22;1.77;;;22.70;99.90;;;;;;5033349;28;20040;-77
2023/08/01 11:15:11;;;;;;;8.48;1.73;;;22.70;99.90;;;;;;5032839;28;20044;-73
2023/08/01 11:17:48;;;;;;;6.97;1.70;;;22.40;99.90;;;;;;5051045;28;20493;-76
2023/08/01 11:20:14;;;;;;;5.13;1.90;;;22.20;99.90;;;;;;5052050;28;20041;-74
2023/08/01 11:23:04;;;;;;;7.28;2.10;;;21.70;99.90;;;;;;5034123;28;20045;-74
2023/08/01 11:25:42;;;;;;;7.32;1.80;;;21.20;99.90;;;;;;5051876;28;20045;-74
2023/08/01 11:28:15;;;;;;;6.88;2.15;;;21.40;99.90;;;;;;5038390;28;20049;-76
2023/08/01 11:30:45;;;;;;;6.82;1.60;;;21.40;99.90;;;;;;5058969;28;20096;-75
2023/08/01 11:33:14;;;;;;;7.10;1.67;;;21.20;99.90;;;;;;5041442;28;20154;-77
2023/08/01 11:35:41;;;;;;;5.63;1.55;;;21.20;99.90;;;;;;5056024;28;20041;-75
2023/08/01 11:38:07;;;;;;;5.15;1.50;;;21.20;99.90;;;;;;5054746;28;20102;-75
2023/08/01 11:40:34;;;;;;;6.95;1.77;;;21.30;99.90;;;;;;5037309;28;20481;-77
2023/08/01 11:42:59;;;;;;;6.72;1.70;;;21.70;99.90;;;;;;5055024;28;20041;-75
2023/08/01 11:45:25;;;;;;;5.95;1.80;;;22.00;99.90;;;;;;5036435;28;20045;-74
2023/08/01 11:47:51;;;;;;;6.95;1.60;;;21.90;99.90;;;;;;5055066;28;20602;-79
2023/08/01 11:50:25;;;;;;;8.77;2.08;;;22.30;99.90;;;;;;5037381;28;20517;-78
2023/08/01 11:52:50;;;;;;;7.85;2.00;;;22.30;99.90;;;;;;5036700;28;20036;-78
2023/08/01 11:55:36;;;;;;;8.52;2.05;;;22.60;99.90;;;;;;5053810;28;20056;-76
2023/08/01 11:58:01;;;;;;;5.30;1.83;;;23.00;99.90;;;;;;5036949;28;20049;-75
2023/08/01 12:00:28;;;;;;;8.93;2.20;;;23.30;99.90;;;;;;5054666;28;20068;-76
2023/08/01 12:03:12;;;;;;;6.50;1.75;;;22.90;99.90;;;;;;5055032;28;20049;-75
2023/08/01 12:05:41;;;;;;;5.60;1.92;;;22.50;99.90;;;;;;5054410;28;20052;-75
2023/08/01 12:08:14;;;;;;;8.90;2.13;;;22.30;99.90;;;;;;5036730;28;20041;-75
2023/08/01 12:10:46;;;;;;;6.28;1.60;;;22.80;99.90;;;;;;5054719;28;20048;-76
2023/08/01 12:13:24;;;;;;;7.60;2.03;;;22.70;99.90;;;;;;5036175;28;20044;-76
2023/08/01 12:15:52;;;;;;;4.95;1.35;;;22.80;99.90;;;;;;5055280;28;20049;-76
2023/08/01 12:18:22;;;;;;;4.63;1.60;;;22.50;99.90;;;;;;5037291;28;20045;-77
2023/08/01 12:20:48;;;;;;;4.03;1.30;;;22.50;99.90;;;;;;5035850;28;20094;-78
2023/08/01 12:23:14;;;;;;;5.18;1.63;;;22.50;99.90;;;;;;5035597;28;20041;-75
2023/08/01 12:25:40;;;;;;;4.68;1.27;;;22.60;99.90;;;;;;5036779;28;20098;-77
2023/08/01 12:28:05;;;;;;;3.38;1.30;;;22.90;99.90;;;;;;5036611;28;20091;-77
2023/08/01 12:30:34;;;;;;;6.65;1.73;;;22.70;99.90;;;;;;5037320;28;20475;-76
2023/08/01 12:33:03;;;;;;;5.50;1.67;;;22.80;99.90;;;;;;5040024;28;20037;-74
2023/08/01 12:35:31;;;;;;;4.75;1.65;;;22.80;99.90;;;;;;5054440;28;20115;-74
2023/08/01 12:38:00;;;;;;;6.68;1.50;;;22.60;99.90;;;;;;5046952;28;20057;-75
2023/08/01 12:40:26;;;;;;;8.20;1.50;;;22.50;99.90;;;;;;5053510;28;20045;-74
2023/08/01 12:42:52;;;;;;;8.65;1.48;;;22.50;99.90;;;;;;5050714;28;20444;-75
2023/08/01 12:45:26;;;;;;;5.07;1.40;;;22.60;99.90;;;;;;5053266;28;20131;-74
2023/08/01 12:47:52;;;;;;;5.40;1.38;;;22.70;99.90;;;;;;5054323;28;20037;-74